Stuart, IA

11:38 AM CDT on May 29, 2015 (GMT -0500)
Perry Municipal | | Change Station
CLOSE
Current Station
Airport
Location: Perry,
Elevation: 1014 ft
Nearby Weather Stations

Elev 1014 ft 41.83 °N, 94.16 °W | Updated 23 minutes ago

Overcast
Overcast
69 °F
Feels Like 69 °F
N
7
Wind Variable Wind from South

Today
High -- | Low -- °F
--% Chance of Precip.
Yesterday
High -- | Low -- °F
Precip. -- in
5:47 AM 8:42 PM
Waxing Gibbous, 84% visible
Pressure 29.92 in
Visibility 10.0 miles
Clouds Mostly Cloudy 900 ft
Mostly Cloudy 8000 ft
Mostly Cloudy 10000 ft
Dew Point 66 °F
Humidity 89%
Rainfall 0.03 in
Snow Depth Not available.
UV 5 out of 12
Pollen .90 out of 12
Air Quality Not available.
Flu Activity Sporadic
METAR KPRO 291615Z AUTO 18006KT 10SM BKN009 BKN080 BKN100 21/19 A2992 RMK AO2 T02050187

More Conditions Fewer Conditions

Pressure 29.92 in
Visibility 10.0 miles
Clouds Mostly Cloudy 900 ft
Mostly Cloudy 8000 ft
Mostly Cloudy 10000 ft
Dew Point 66 °F
Humidity 89%
Rainfall 0.03 in
Snow Depth Not available.
UV 5 out of 12
Pollen .90 out of 12
Air Quality Not available.
Flu Activity Sporadic
METAR KPRO 291615Z AUTO 18006KT 10SM BKN009 BKN080 BKN100 21/19 A2992 RMK AO2 T02050187

More Conditions Fewer Conditions

10-Day Weather Forecast

Almanac

Astronomy

May. 29, 2015 Rise Set
Actual Time
Civil Twilight
Nautical Twilight
Astronomical Twilight
Moon
Length of Visible Light
Length of Day
Tomorrow will be .
, % of the Moon is Illuminated

Today's Extremes

State Highs State Lows

Community

WunderPhotos

Upload Photos

1,825,301 photos uploaded!

WunderBlogs® & News

Nearby

Air Quality

  Air Quality AQ Index Pollutant
Not available.

Snow Depth

Station Depth Elevation

Earthquake Activity

City Distance Mag. Time & Date
Minimum magnitude displayed is 2.5.

Coastal Water Temperatures

Place Temperature

Stations

Nearby Weather Stations

Station Location Temp. Windchill Dew Point Humidity Wind Precip. Elev Updated Type